createdAt,value
2018-04-26T00:00:17.995Z,969.88
2018-04-26T00:01:18.675Z,969.86
2018-04-26T00:02:19.347Z,969.90
2018-04-26T00:03:20.020Z,969.86
2018-04-26T00:04:20.697Z,969.84
2018-04-26T00:05:21.378Z,969.88
2018-04-26T00:06:22.051Z,969.84
2018-04-26T00:07:22.725Z,969.81
2018-04-26T00:08:23.397Z,969.87
2018-04-26T00:09:24.070Z,969.89
2018-04-26T00:10:24.741Z,969.90
2018-04-26T00:11:25.413Z,969.91
2018-04-26T00:12:26.097Z,969.92
2018-04-26T00:13:26.771Z,969.95
2018-04-26T00:14:27.441Z,969.94
2018-04-26T00:15:28.113Z,969.97
2018-04-26T00:16:28.785Z,969.97
2018-04-26T00:17:29.455Z,969.97
2018-04-26T00:18:30.130Z,969.99
2018-04-26T00:19:30.803Z,969.99
2018-04-26T00:20:31.483Z,970.00
2018-04-26T00:21:32.153Z,970.05
2018-04-26T00:22:32.825Z,969.96
2018-04-26T00:23:33.500Z,969.94
2018-04-26T00:24:34.174Z,969.98
2018-04-26T00:25:34.847Z,969.99
2018-04-26T00:26:35.527Z,970.02
2018-04-26T00:27:36.201Z,970.02
2018-04-26T00:28:36.874Z,970.08
2018-04-26T00:29:37.548Z,970.05
2018-04-26T00:30:38.220Z,969.95
2018-04-26T00:31:38.888Z,970.05
2018-04-26T00:32:39.560Z,970.07
2018-04-26T00:33:40.233Z,970.02
2018-04-26T00:34:40.907Z,969.99
2018-04-26T00:35:41.590Z,970.02
2018-04-26T00:36:42.258Z,970.04
2018-04-26T00:37:42.931Z,970.02
2018-04-26T00:38:43.605Z,970.00
2018-04-26T00:39:44.285Z,969.99
2018-04-26T00:40:44.957Z,969.92
2018-04-26T00:41:45.630Z,969.95
2018-04-26T00:42:46.306Z,969.94
2018-04-26T00:43:46.984Z,969.97
2018-04-26T00:44:47.656Z,969.93
2018-04-26T00:45:48.329Z,969.93
2018-04-26T00:46:49.003Z,969.90
2018-04-26T00:47:49.676Z,969.91
2018-04-26T00:48:50.356Z,969.92
2018-04-26T00:49:51.027Z,969.89
2018-04-26T00:50:51.697Z,969.92
2018-04-26T00:51:52.372Z,969.84
2018-04-26T00:52:53.044Z,969.86
2018-04-26T00:53:53.717Z,969.85
2018-04-26T00:54:54.397Z,969.90
2018-04-26T00:55:55.068Z,969.82
2018-04-26T00:56:55.740Z,969.92
2018-04-26T00:57:56.408Z,969.87
2018-04-26T00:58:57.080Z,969.93
2018-04-26T00:59:57.751Z,969.91
2018-04-26T01:00:58.420Z,969.85
2018-04-26T01:01:59.089Z,969.94
2018-04-26T01:02:59.760Z,969.86
2018-04-26T01:04:00.430Z,969.90
2018-04-26T01:05:01.109Z,969.82
2018-04-26T01:06:01.786Z,969.82
2018-04-26T01:07:02.457Z,969.92
2018-04-26T01:08:03.127Z,969.79
2018-04-26T01:09:03.801Z,969.79
2018-04-26T01:10:04.477Z,969.75
2018-04-26T01:11:05.150Z,969.65
2018-04-26T01:12:05.821Z,969.72
2018-04-26T01:13:06.500Z,969.69
2018-04-26T01:14:07.171Z,969.69
2018-04-26T01:15:07.843Z,969.74
2018-04-26T01:16:08.514Z,969.72
2018-04-26T01:17:09.185Z,969.75
2018-04-26T01:18:09.859Z,969.79
2018-04-26T01:19:10.530Z,969.79
2018-04-26T01:20:11.301Z,969.84
2018-04-26T01:21:11.872Z,969.86
2018-04-26T01:22:12.550Z,969.87
2018-04-26T01:23:13.220Z,969.90
2018-04-26T01:24:13.893Z,969.96
2018-04-26T01:25:14.572Z,969.88
2018-04-26T01:26:15.242Z,969.90
2018-04-26T01:27:15.916Z,969.89
2018-04-26T01:28:16.588Z,969.89
2018-04-26T01:29:17.261Z,969.88
2018-04-26T01:30:17.932Z,969.92
2018-04-26T01:31:18.605Z,969.97
2018-04-26T01:32:19.277Z,969.95
2018-04-26T01:33:19.950Z,969.94
2018-04-26T01:34:20.627Z,969.96
2018-04-26T01:35:21.306Z,969.96
2018-04-26T01:36:21.977Z,970.05
2018-04-26T01:37:22.649Z,970.03
2018-04-26T01:38:23.322Z,970.00
2018-04-26T01:39:23.993Z,970.08
2018-04-26T01:40:24.666Z,970.09
2018-04-26T01:41:25.339Z,970.12
2018-04-26T01:42:26.016Z,970.14
2018-04-26T01:43:26.690Z,970.16
2018-04-26T01:44:27.361Z,970.17
2018-04-26T01:45:28.032Z,970.15
2018-04-26T01:46:28.701Z,970.19
2018-04-26T01:47:29.375Z,970.19
2018-04-26T01:48:30.047Z,970.16
2018-04-26T01:49:30.718Z,970.08
2018-04-26T01:50:31.389Z,970.09
2018-04-26T01:51:32.057Z,970.08
2018-04-26T01:52:32.729Z,970.01
2018-04-26T01:53:33.406Z,970.07
2018-04-26T01:54:34.076Z,970.03
2018-04-26T01:55:34.748Z,970.02
2018-04-26T01:56:35.421Z,969.98
2018-04-26T01:57:36.093Z,969.92
2018-04-26T01:58:36.763Z,969.93
2018-04-26T01:59:37.436Z,969.99
2018-04-26T02:00:38.109Z,969.92
2018-04-26T02:01:38.781Z,969.90
2018-04-26T02:02:39.452Z,969.91
2018-04-26T02:03:40.127Z,969.91
2018-04-26T02:04:40.791Z,969.93
2018-04-26T02:05:41.459Z,969.94
2018-04-26T02:06:42.131Z,969.95
2018-04-26T02:07:42.801Z,969.95
2018-04-26T02:08:43.475Z,969.99
2018-04-26T02:09:44.221Z,969.96
2018-04-26T02:10:44.829Z,969.99
2018-04-26T02:11:45.501Z,970.00
2018-04-26T02:12:46.166Z,969.97
2018-04-26T02:13:46.839Z,969.93
2018-04-26T02:14:47.517Z,969.98
2018-04-26T02:15:48.182Z,969.93
2018-04-26T02:16:48.854Z,969.96
2018-04-26T02:17:49.525Z,970.00
2018-04-26T02:18:50.238Z,970.00
2018-04-26T02:19:50.870Z,970.02
2018-04-26T02:20:51.544Z,970.02
2018-04-26T02:21:52.222Z,970.00
2018-04-26T02:22:52.899Z,970.01
2018-04-26T02:23:53.572Z,969.97
2018-04-26T02:24:54.244Z,970.01
2018-04-26T02:25:54.915Z,970.05
2018-04-26T02:26:55.590Z,970.01
2018-04-26T02:27:56.262Z,970.05
2018-04-26T02:28:56.934Z,970.06
2018-04-26T02:29:57.609Z,970.04
2018-04-26T02:30:58.279Z,970.05
2018-04-26T02:31:58.953Z,970.01
2018-04-26T02:32:59.624Z,970.03
2018-04-26T02:34:00.303Z,970.00
2018-04-26T02:35:00.973Z,969.99
2018-04-26T02:36:01.649Z,970.06
2018-04-26T02:37:02.322Z,970.09
2018-04-26T02:38:02.994Z,970.19
2018-04-26T02:39:03.664Z,970.20
2018-04-26T02:40:04.336Z,970.24
2018-04-26T02:41:05.007Z,970.29
2018-04-26T02:42:05.681Z,970.24
2018-04-26T02:43:06.358Z,970.26
2018-04-26T02:44:07.033Z,970.23
2018-04-26T02:45:07.710Z,970.19
2018-04-26T02:46:08.376Z,970.17
2018-04-26T02:47:09.050Z,970.16
2018-04-26T02:48:09.721Z,970.19
2018-04-26T02:49:10.391Z,970.11
2018-04-26T02:50:11.071Z,970.21
2018-04-26T02:51:11.750Z,970.24
2018-04-26T02:52:12.407Z,970.14
2018-04-26T02:53:13.082Z,970.18
2018-04-26T02:54:13.749Z,970.14
2018-04-26T02:55:14.432Z,970.23
2018-04-26T02:56:15.099Z,970.22
2018-04-26T02:57:15.772Z,970.27
2018-04-26T02:58:16.440Z,970.30
2018-04-26T02:59:17.160Z,970.27
2018-04-26T03:00:17.784Z,970.34
2018-04-26T03:01:18.456Z,970.44
2018-04-26T03:02:19.125Z,970.37
2018-04-26T03:03:19.796Z,970.36
2018-04-26T03:04:20.473Z,970.38
2018-04-26T03:05:21.137Z,970.36
2018-04-26T03:06:21.807Z,970.38
2018-04-26T03:07:22.474Z,970.39
2018-04-26T03:08:23.188Z,970.34
2018-04-26T03:09:23.812Z,970.29
2018-04-26T03:10:24.483Z,970.27
2018-04-26T03:11:25.153Z,970.25
2018-04-26T03:12:25.835Z,970.27
2018-04-26T03:13:26.513Z,970.24
2018-04-26T03:14:27.180Z,970.28
2018-04-26T03:15:27.850Z,970.33
2018-04-26T03:16:28.528Z,970.36
2018-04-26T03:17:29.201Z,970.31
2018-04-26T03:18:29.868Z,970.31
2018-04-26T03:19:30.538Z,970.33
2018-04-26T03:20:31.210Z,970.28
2018-04-26T03:21:31.881Z,970.34
2018-04-26T03:22:32.550Z,970.20
2018-04-26T03:23:33.221Z,970.27
2018-04-26T03:24:33.892Z,970.25
2018-04-26T03:25:34.564Z,970.25
2018-04-26T03:26:35.234Z,970.23
2018-04-26T03:27:35.905Z,970.30
2018-04-26T03:28:36.590Z,970.31
2018-04-26T03:29:37.257Z,970.33
2018-04-26T03:30:37.933Z,970.28
2018-04-26T03:31:38.601Z,970.32
2018-04-26T03:32:39.273Z,970.28
2018-04-26T03:33:39.948Z,970.27
2018-04-26T03:34:40.617Z,970.24
2018-04-26T03:35:41.287Z,970.23
2018-04-26T03:36:41.961Z,970.24
2018-04-26T03:37:42.633Z,970.26
2018-04-26T03:38:43.310Z,970.27
2018-04-26T03:39:44.046Z,970.26
2018-04-26T03:40:44.710Z,970.30
2018-04-26T03:41:45.376Z,970.34
2018-04-26T03:42:46.056Z,970.45
2018-04-26T03:43:46.730Z,970.43
2018-04-26T03:44:47.397Z,970.43
2018-04-26T03:45:48.076Z,970.49
2018-04-26T03:46:48.751Z,970.51
2018-04-26T03:47:49.423Z,970.52
2018-04-26T03:48:50.096Z,970.60
2018-04-26T03:49:50.765Z,970.57
2018-04-26T03:50:51.437Z,970.70
2018-04-26T03:51:52.104Z,970.68
2018-04-26T03:52:52.771Z,970.67
2018-04-26T03:53:53.442Z,970.71
2018-04-26T03:54:54.116Z,970.74
2018-04-26T03:55:54.783Z,970.65
2018-04-26T03:56:55.457Z,970.69
2018-04-26T03:57:56.124Z,970.64
2018-04-26T03:58:56.796Z,970.55
2018-04-26T03:59:57.466Z,970.55
2018-04-26T04:00:58.141Z,970.56
2018-04-26T04:01:58.813Z,970.57
2018-04-26T04:02:59.483Z,970.55
2018-04-26T04:04:00.155Z,970.62
2018-04-26T04:05:00.830Z,970.65
2018-04-26T04:06:01.503Z,970.66
2018-04-26T04:07:02.179Z,970.72
2018-04-26T04:08:02.855Z,970.71
2018-04-26T04:09:03.524Z,970.77
2018-04-26T04:10:04.196Z,970.79
2018-04-26T04:11:04.873Z,970.80
2018-04-26T04:12:05.542Z,970.76
2018-04-26T04:13:06.215Z,970.72
2018-04-26T04:14:06.895Z,970.69
2018-04-26T04:15:07.565Z,970.64
2018-04-26T04:16:08.236Z,970.64
2018-04-26T04:17:08.914Z,970.68
2018-04-26T04:18:09.577Z,970.65
2018-04-26T04:19:10.248Z,970.60
2018-04-26T04:20:10.918Z,970.52
2018-04-26T04:21:11.587Z,970.54
2018-04-26T04:22:12.260Z,970.56
2018-04-26T04:23:12.937Z,970.62
2018-04-26T04:24:13.606Z,970.64
2018-04-26T04:25:14.274Z,970.73
2018-04-26T04:26:14.941Z,970.78
2018-04-26T04:27:15.616Z,970.88
2018-04-26T04:28:16.285Z,970.93
2018-04-26T04:29:16.963Z,970.95
2018-04-26T04:30:17.634Z,970.93
2018-04-26T04:31:18.307Z,971.00
2018-04-26T04:32:18.980Z,971.03
2018-04-26T04:33:19.650Z,971.06
2018-04-26T04:34:20.323Z,971.11
2018-04-26T04:35:21.068Z,971.09
2018-04-26T04:36:21.670Z,971.10
2018-04-26T04:37:22.343Z,971.17
2018-04-26T04:38:23.021Z,971.22
2018-04-26T04:39:23.693Z,971.23
2018-04-26T04:40:24.371Z,971.34
2018-04-26T04:41:25.041Z,971.36
2018-04-26T04:42:25.726Z,971.44
2018-04-26T04:43:26.402Z,971.45
2018-04-26T04:44:27.075Z,971.49
2018-04-26T04:45:27.751Z,971.48
2018-04-26T04:46:28.425Z,971.51
2018-04-26T04:47:29.099Z,971.49
2018-04-26T04:48:29.785Z,971.51
2018-04-26T04:49:30.456Z,971.47
2018-04-26T04:50:31.134Z,971.46
2018-04-26T04:51:31.810Z,971.49
2018-04-26T04:52:32.486Z,971.48
2018-04-26T04:53:33.164Z,971.50
2018-04-26T04:54:33.835Z,971.49
2018-04-26T04:55:34.509Z,971.49
2018-04-26T04:56:35.185Z,971.46
2018-04-26T04:57:35.858Z,971.47
2018-04-26T04:58:36.531Z,971.42
2018-04-26T04:59:37.204Z,971.39
2018-04-26T05:00:37.876Z,971.42
2018-04-26T05:01:38.550Z,971.37
2018-04-26T05:02:39.224Z,971.35
2018-04-26T05:03:39.905Z,971.36
2018-04-26T05:04:40.576Z,971.34
2018-04-26T05:05:41.249Z,971.32
2018-04-26T05:06:41.921Z,971.33
2018-04-26T05:07:42.597Z,971.33
2018-04-26T05:08:43.281Z,971.32
2018-04-26T05:09:43.956Z,971.31
2018-04-26T05:10:44.628Z,971.35
2018-04-26T05:11:45.299Z,971.33
2018-04-26T05:12:45.975Z,971.32
2018-04-26T05:13:46.657Z,971.31
2018-04-26T05:14:47.328Z,971.35
2018-04-26T05:15:48.012Z,971.39
2018-04-26T05:16:48.679Z,971.39
2018-04-26T05:17:49.353Z,971.38
2018-04-26T05:18:50.031Z,971.41
2018-04-26T05:19:50.705Z,971.36
2018-04-26T05:20:51.380Z,971.48
2018-04-26T05:21:52.049Z,971.50
2018-04-26T05:22:52.722Z,971.59
2018-04-26T05:23:53.399Z,971.59
2018-04-26T05:24:54.081Z,971.56
2018-04-26T05:25:54.756Z,971.53
2018-04-26T05:26:55.431Z,971.58
2018-04-26T05:27:56.128Z,971.64
2018-04-26T05:28:56.786Z,971.66
2018-04-26T05:29:57.484Z,971.61
2018-04-26T05:30:58.139Z,971.54
2018-04-26T05:31:58.817Z,971.52
2018-04-26T05:32:59.490Z,971.51
2018-04-26T05:34:00.169Z,971.52
2018-04-26T05:35:00.844Z,971.48
2018-04-26T05:36:01.544Z,971.48
2018-04-26T05:37:02.216Z,971.48
2018-04-26T05:38:02.902Z,971.55
2018-04-26T05:39:03.577Z,971.57
2018-04-26T05:40:04.264Z,971.62
2018-04-26T05:41:04.933Z,971.59
2018-04-26T05:42:05.615Z,971.62
2018-04-26T05:43:06.287Z,971.61
2018-04-26T05:44:06.969Z,971.64
2018-04-26T05:45:07.645Z,971.64
2018-04-26T05:46:08.323Z,971.67
2018-04-26T05:47:08.998Z,971.61
2018-04-26T05:48:09.677Z,971.72
2018-04-26T05:49:10.351Z,971.70
2018-04-26T05:50:11.023Z,971.64
2018-04-26T05:51:11.698Z,971.68
2018-04-26T05:52:12.372Z,971.71
2018-04-26T05:53:13.050Z,971.73
2018-04-26T05:54:13.730Z,971.80
2018-04-26T05:55:14.403Z,971.78
2018-04-26T05:56:15.077Z,971.84
2018-04-26T05:57:15.754Z,971.83
2018-04-26T05:58:16.428Z,971.85
2018-04-26T05:59:17.104Z,971.84
2018-04-26T06:00:17.780Z,971.85
2018-04-26T06:01:18.458Z,971.92
2018-04-26T06:02:19.133Z,971.88
2018-04-26T06:03:19.815Z,971.90
2018-04-26T06:04:20.497Z,971.87
2018-04-26T06:05:21.174Z,971.92
2018-04-26T06:06:21.851Z,971.95
2018-04-26T06:07:22.523Z,971.95
2018-04-26T06:08:23.202Z,971.96
2018-04-26T06:09:23.880Z,971.93
2018-04-26T06:10:24.553Z,971.91
2018-04-26T06:11:25.313Z,971.89
2018-04-26T06:12:25.914Z,971.90
2018-04-26T06:13:26.588Z,971.89
2018-04-26T06:14:27.260Z,971.81
2018-04-26T06:15:27.948Z,971.78
2018-04-26T06:16:28.621Z,971.80
2018-04-26T06:17:29.294Z,971.86
2018-04-26T06:18:29.968Z,971.88
2018-04-26T06:19:30.643Z,971.92
2018-04-26T06:20:31.320Z,971.89
2018-04-26T06:21:31.998Z,971.92
2018-04-26T06:22:32.674Z,971.90
2018-04-26T06:23:33.352Z,971.87
2018-04-26T06:24:34.027Z,971.90
2018-04-26T06:25:34.707Z,971.95
2018-04-26T06:26:35.391Z,971.85
2018-04-26T06:27:36.067Z,971.88
2018-04-26T06:28:36.743Z,971.89
2018-04-26T06:29:37.427Z,971.89
2018-04-26T06:30:38.101Z,971.89
2018-04-26T06:31:38.784Z,971.91
2018-04-26T06:32:39.461Z,971.89
2018-04-26T06:33:40.139Z,971.89
2018-04-26T06:34:40.819Z,971.98
2018-04-26T06:35:41.492Z,972.01
2018-04-26T06:36:42.165Z,972.00
2018-04-26T06:37:42.842Z,972.16
2018-04-26T06:38:43.520Z,972.12
2018-04-26T06:39:44.192Z,972.09
2018-04-26T06:40:44.865Z,972.07
2018-04-26T06:41:45.539Z,972.06
2018-04-26T06:42:46.219Z,972.10
2018-04-26T06:43:46.899Z,972.07
2018-04-26T06:44:47.575Z,972.06
2018-04-26T06:45:48.248Z,972.08
2018-04-26T06:46:48.925Z,972.15
2018-04-26T06:47:49.622Z,972.11
2018-04-26T06:48:50.277Z,972.14
2018-04-26T06:49:50.955Z,972.09
2018-04-26T06:50:51.630Z,972.08
2018-04-26T06:51:52.311Z,972.11
2018-04-26T06:52:52.986Z,972.10
2018-04-26T06:53:53.663Z,972.11
2018-04-26T06:54:54.339Z,972.10
2018-04-26T06:55:55.024Z,972.08
2018-04-26T06:56:55.698Z,972.13
2018-04-26T06:57:56.382Z,972.01
2018-04-26T06:58:57.056Z,972.14
2018-04-26T06:59:57.744Z,972.09
2018-04-26T07:00:58.423Z,972.11
2018-04-26T07:01:59.098Z,972.19
2018-04-26T07:02:59.774Z,972.19
2018-04-26T07:04:00.456Z,972.12
2018-04-26T07:05:01.136Z,972.07
2018-04-26T07:06:01.811Z,972.16
2018-04-26T07:07:02.492Z,972.22
2018-04-26T07:08:03.165Z,972.01
2018-04-26T07:09:03.843Z,972.12
2018-04-26T07:10:04.520Z,972.06
2018-04-26T07:11:05.196Z,972.07
2018-04-26T07:12:05.884Z,972.12
2018-04-26T07:13:06.552Z,972.18
2018-04-26T07:14:07.232Z,972.11
2018-04-26T07:15:07.911Z,972.12
2018-04-26T07:16:08.585Z,972.09
2018-04-26T07:17:09.260Z,972.13
2018-04-26T07:18:09.941Z,972.12
2018-04-26T07:19:10.621Z,972.11
2018-04-26T07:20:11.298Z,972.13
2018-04-26T07:21:11.977Z,972.14
2018-04-26T07:22:12.658Z,972.18
2018-04-26T07:23:13.332Z,972.10
2018-04-26T07:24:14.011Z,972.12
2018-04-26T07:25:14.689Z,972.13
2018-04-26T07:26:15.373Z,972.15
2018-04-26T07:27:16.048Z,972.14
2018-04-26T07:28:16.728Z,972.20
2018-04-26T07:29:17.404Z,972.17
2018-04-26T07:30:18.082Z,972.18
2018-04-26T07:31:18.758Z,972.19
2018-04-26T07:32:19.438Z,972.08
2018-04-26T07:33:20.118Z,972.14
2018-04-26T07:34:20.792Z,972.12
2018-04-26T07:35:21.482Z,972.13
2018-04-26T07:36:22.160Z,972.20
2018-04-26T07:37:22.836Z,972.18
2018-04-26T07:38:23.514Z,972.20
2018-04-26T07:39:24.191Z,972.21
2018-04-26T07:40:24.866Z,972.26
2018-04-26T07:41:25.549Z,972.30
2018-04-26T07:42:26.291Z,972.25
2018-04-26T07:43:26.965Z,972.20
2018-04-26T07:44:27.640Z,972.26
2018-04-26T07:45:28.325Z,972.23
2018-04-26T07:46:29.029Z,972.25
2018-04-26T07:47:29.705Z,972.19
2018-04-26T07:48:30.385Z,972.30
2018-04-26T07:49:31.059Z,972.35
2018-04-26T07:50:31.741Z,972.29
2018-04-26T07:51:32.412Z,972.29
2018-04-26T07:52:33.095Z,972.30
2018-04-26T07:53:33.776Z,972.31
2018-04-26T07:54:34.449Z,972.35
2018-04-26T07:55:35.132Z,972.36
2018-04-26T07:56:35.808Z,972.32
2018-04-26T07:57:36.485Z,972.41
2018-04-26T07:58:37.159Z,972.35
2018-04-26T07:59:37.840Z,972.32
2018-04-26T08:00:38.526Z,972.33
2018-04-26T08:01:39.319Z,972.36
2018-04-26T08:02:39.877Z,972.46
2018-04-26T08:03:40.556Z,972.57
2018-04-26T08:04:41.232Z,972.46
2018-04-26T08:05:41.916Z,972.43
2018-04-26T08:06:42.591Z,972.52
2018-04-26T08:07:43.264Z,972.44
2018-04-26T08:08:43.951Z,972.60
2018-04-26T08:09:44.626Z,972.42
2018-04-26T08:10:45.299Z,972.44
2018-04-26T08:11:45.992Z,972.53
2018-04-26T08:12:46.664Z,972.53
2018-04-26T08:13:47.344Z,972.46
2018-04-26T08:14:48.026Z,972.46
2018-04-26T08:15:48.703Z,972.44
2018-04-26T08:16:49.393Z,972.40
2018-04-26T08:17:50.068Z,972.55
2018-04-26T08:18:50.744Z,972.36
2018-04-26T08:19:51.430Z,972.37
2018-04-26T08:20:52.101Z,972.43
2018-04-26T08:21:52.782Z,972.43
2018-04-26T08:22:53.472Z,972.52
2018-04-26T08:23:54.134Z,972.42
2018-04-26T08:24:54.833Z,972.53
2018-04-26T08:25:55.488Z,972.40
2018-04-26T08:26:56.230Z,972.45
2018-04-26T08:27:56.904Z,972.46
2018-04-26T08:28:57.582Z,972.47
2018-04-26T08:29:58.260Z,972.47
2018-04-26T08:30:58.939Z,972.45
2018-04-26T08:31:59.615Z,972.43
2018-04-26T08:33:00.298Z,972.47
2018-04-26T08:34:00.981Z,972.50
2018-04-26T08:35:01.660Z,972.46
2018-04-26T08:36:02.339Z,972.50
2018-04-26T08:37:03.020Z,972.51
2018-04-26T08:38:03.700Z,972.50
2018-04-26T08:39:04.379Z,972.46
2018-04-26T08:40:05.060Z,972.49
2018-04-26T08:41:05.733Z,972.50
2018-04-26T08:42:06.409Z,972.56
2018-04-26T08:43:07.083Z,972.52
2018-04-26T08:44:07.762Z,972.58
2018-04-26T08:45:08.439Z,972.58
2018-04-26T08:46:09.116Z,972.62
2018-04-26T08:47:09.793Z,972.62
2018-04-26T08:48:10.472Z,972.60
2018-04-26T08:49:11.153Z,972.69
2018-04-26T08:50:11.829Z,972.69
2018-04-26T08:51:12.506Z,972.67
2018-04-26T08:52:13.237Z,972.68
2018-04-26T08:53:13.872Z,972.70
2018-04-26T08:54:14.757Z,972.76
2018-04-26T08:55:15.432Z,972.64
2018-04-26T08:56:16.115Z,972.69
2018-04-26T08:57:16.788Z,972.72
2018-04-26T08:58:17.463Z,972.70
2018-04-26T08:59:18.141Z,972.69
2018-04-26T09:00:18.818Z,972.71
2018-04-26T09:01:19.494Z,972.71
2018-04-26T09:02:20.185Z,972.70
2018-04-26T09:03:20.872Z,972.68
2018-04-26T09:04:21.550Z,972.72
2018-04-26T09:05:22.237Z,972.68
2018-04-26T09:06:22.914Z,972.68
2018-04-26T09:07:23.590Z,972.68
2018-04-26T09:08:24.270Z,972.73
2018-04-26T09:09:24.946Z,972.64
2018-04-26T09:10:25.623Z,972.64
2018-04-26T09:11:26.297Z,972.62
2018-04-26T09:12:26.972Z,972.66
2018-04-26T09:13:27.660Z,972.64
2018-04-26T09:14:28.334Z,972.63
2018-04-26T09:15:29.015Z,972.68
2018-04-26T09:16:29.692Z,972.72
2018-04-26T09:17:30.365Z,972.76
2018-04-26T09:18:31.040Z,972.67
2018-04-26T09:19:31.718Z,972.64
2018-04-26T09:20:32.393Z,972.63
2018-04-26T09:21:33.073Z,972.61
2018-04-26T09:22:33.750Z,972.63
2018-04-26T09:23:34.425Z,972.66
2018-04-26T09:24:35.102Z,972.71
2018-04-26T09:25:35.783Z,972.73
2018-04-26T09:26:36.461Z,972.79
2018-04-26T09:27:37.135Z,972.79
2018-04-26T09:28:37.813Z,972.79
2018-04-26T09:29:38.490Z,972.82
2018-04-26T09:30:39.165Z,972.77
2018-04-26T09:31:39.844Z,972.75
2018-04-26T09:32:40.527Z,972.83
2018-04-26T09:33:41.208Z,972.82
2018-04-26T09:34:41.888Z,972.83
2018-04-26T09:35:42.566Z,972.77
2018-04-26T09:36:43.242Z,972.75
2018-04-26T09:37:43.918Z,972.72
2018-04-26T09:38:44.602Z,972.74
2018-04-26T09:39:45.273Z,972.77
2018-04-26T09:40:45.950Z,972.85
2018-04-26T09:41:46.623Z,972.73
2018-04-26T09:42:47.306Z,972.72
2018-04-26T09:43:47.982Z,972.74
2018-04-26T09:44:48.663Z,972.78
2018-04-26T09:45:49.343Z,972.68
2018-04-26T09:46:50.018Z,972.66
2018-04-26T09:47:50.722Z,972.72
2018-04-26T09:48:51.406Z,972.69
2018-04-26T09:49:52.082Z,972.66
2018-04-26T09:50:52.761Z,972.72
2018-04-26T09:51:53.452Z,972.64
2018-04-26T09:52:54.133Z,972.70
2018-04-26T09:53:54.818Z,972.66
2018-04-26T09:54:55.504Z,972.63
2018-04-26T09:55:56.182Z,972.60
2018-04-26T09:56:56.860Z,972.66
2018-04-26T09:57:57.544Z,972.77
2018-04-26T09:58:58.218Z,972.65
2018-04-26T09:59:58.898Z,972.63
2018-04-26T10:00:59.576Z,972.61
2018-04-26T10:02:00.270Z,972.62
2018-04-26T10:03:00.946Z,972.64
2018-04-26T10:04:01.635Z,972.62
2018-04-26T10:05:02.321Z,972.68
2018-04-26T10:06:03.004Z,972.62
2018-04-26T10:07:03.688Z,972.66
2018-04-26T10:08:04.364Z,972.71
2018-04-26T10:09:05.046Z,972.67
2018-04-26T10:10:05.755Z,972.69
2018-04-26T10:11:06.397Z,972.65
2018-04-26T10:12:07.070Z,972.67
2018-04-26T10:13:07.746Z,972.68
2018-04-26T10:14:08.422Z,972.73
2018-04-26T10:15:09.181Z,972.69
2018-04-26T10:16:09.780Z,972.71
2018-04-26T10:17:10.461Z,972.60
2018-04-26T10:18:11.141Z,972.69
2018-04-26T10:19:11.821Z,972.67
2018-04-26T10:20:12.496Z,972.70
2018-04-26T10:21:13.182Z,972.64
2018-04-26T10:22:13.855Z,972.67
2018-04-26T10:23:14.534Z,972.70
2018-04-26T10:24:15.217Z,972.61
2018-04-26T10:25:15.900Z,972.56
2018-04-26T10:26:16.576Z,972.59
2018-04-26T10:27:17.263Z,972.67
2018-04-26T10:28:17.942Z,972.66
2018-04-26T10:29:18.630Z,972.66
2018-04-26T10:30:19.306Z,972.65
2018-04-26T10:31:19.983Z,972.65
2018-04-26T10:32:20.662Z,972.67
2018-04-26T10:33:21.339Z,972.74
2018-04-26T10:34:22.022Z,972.65
2018-04-26T10:35:22.708Z,972.67
2018-04-26T10:36:23.377Z,972.67
2018-04-26T10:37:24.059Z,972.74
2018-04-26T10:38:24.734Z,972.84
2018-04-26T10:39:25.442Z,972.69
2018-04-26T10:40:26.087Z,972.75
2018-04-26T10:41:26.771Z,972.74
2018-04-26T10:42:27.447Z,972.78
2018-04-26T10:43:28.128Z,972.79
2018-04-26T10:44:28.817Z,972.78
2018-04-26T10:45:29.493Z,972.84
2018-04-26T10:46:30.176Z,972.84
2018-04-26T10:47:30.861Z,972.83
2018-04-26T10:48:31.541Z,972.79
2018-04-26T10:49:32.230Z,972.88
2018-04-26T10:50:32.909Z,972.89
2018-04-26T10:51:33.592Z,972.81
2018-04-26T10:52:34.270Z,972.78
2018-04-26T10:53:34.963Z,972.81
2018-04-26T10:54:35.640Z,972.82
2018-04-26T10:55:36.319Z,972.86
2018-04-26T10:56:36.992Z,972.77
2018-04-26T10:57:37.670Z,972.81
2018-04-26T10:58:38.349Z,972.78
2018-04-26T10:59:39.030Z,972.79
2018-04-26T11:00:39.708Z,972.80
2018-04-26T11:01:40.386Z,972.83
2018-04-26T11:02:41.058Z,972.84
2018-04-26T11:03:41.736Z,972.95
2018-04-26T11:04:42.413Z,972.82
2018-04-26T11:05:43.094Z,972.80
2018-04-26T11:06:43.773Z,972.86
2018-04-26T11:07:44.454Z,972.79
2018-04-26T11:08:45.129Z,972.80
2018-04-26T11:09:45.808Z,972.81
2018-04-26T11:10:46.487Z,972.91
2018-04-26T11:11:47.166Z,972.90
2018-04-26T11:12:47.844Z,972.86
2018-04-26T11:13:48.526Z,972.94
2018-04-26T11:14:49.213Z,972.89
2018-04-26T11:15:49.889Z,972.97
2018-04-26T11:16:50.567Z,973.05
2018-04-26T11:17:51.247Z,973.01
2018-04-26T11:18:51.923Z,972.89
2018-04-26T11:19:52.603Z,973.01
2018-04-26T11:20:53.279Z,972.95
2018-04-26T11:21:53.956Z,973.00
2018-04-26T11:22:54.635Z,972.95
2018-04-26T11:23:55.309Z,972.97
2018-04-26T11:24:55.990Z,972.93
2018-04-26T11:25:56.675Z,972.93
2018-04-26T11:26:57.352Z,972.90
2018-04-26T11:27:58.029Z,972.96
2018-04-26T11:28:58.710Z,972.86
2018-04-26T11:29:59.388Z,972.89
2018-04-26T11:31:00.171Z,972.89
2018-04-26T11:32:00.743Z,972.89
2018-04-26T11:33:01.423Z,972.80
2018-04-26T11:34:02.110Z,972.82
2018-04-26T11:35:02.790Z,972.83
2018-04-26T11:36:03.469Z,972.79
2018-04-26T11:37:04.150Z,972.81
2018-04-26T11:38:04.829Z,972.80
2018-04-26T11:39:05.503Z,972.85
2018-04-26T11:40:06.271Z,972.83
2018-04-26T11:41:06.868Z,972.79
2018-04-26T11:42:07.551Z,972.77
2018-04-26T11:43:08.272Z,972.77
2018-04-26T11:44:08.955Z,972.73
2018-04-26T11:45:09.631Z,972.68
2018-04-26T11:46:10.303Z,972.70
2018-04-26T11:47:10.994Z,972.70
2018-04-26T11:48:11.681Z,972.68
2018-04-26T11:49:12.359Z,972.73
2018-04-26T11:50:13.039Z,972.85
2018-04-26T11:51:13.943Z,972.79
2018-04-26T11:52:14.621Z,972.67
2018-04-26T11:53:15.300Z,972.68
2018-04-26T11:54:15.986Z,972.64
2018-04-26T11:55:16.675Z,972.72
2018-04-26T11:56:17.440Z,972.70
2018-04-26T11:57:18.037Z,972.69
2018-04-26T11:58:18.715Z,972.67
2018-04-26T11:59:19.395Z,972.63
2018-04-26T12:00:20.078Z,972.73
2018-04-26T12:01:20.750Z,972.65
2018-04-26T12:02:21.437Z,972.60
2018-04-26T12:03:22.102Z,972.56
2018-04-26T12:04:22.776Z,972.52
2018-04-26T12:05:23.452Z,972.61
2018-04-26T12:06:24.136Z,972.58
2018-04-26T12:07:24.821Z,972.63
2018-04-26T12:08:25.497Z,972.58
2018-04-26T12:09:26.177Z,972.60
2018-04-26T12:10:26.857Z,972.58
2018-04-26T12:11:27.539Z,972.52
2018-04-26T12:12:28.220Z,972.64
2018-04-26T12:13:28.903Z,972.51
2018-04-26T12:14:29.585Z,972.42
2018-04-26T12:15:30.264Z,972.48
2018-04-26T12:16:30.944Z,972.46
2018-04-26T12:17:31.633Z,972.45
2018-04-26T12:18:32.333Z,972.50
2018-04-26T12:19:32.999Z,972.56
2018-04-26T12:20:33.682Z,972.51
2018-04-26T12:21:34.362Z,972.79
2018-04-26T12:22:35.046Z,972.72
2018-04-26T12:23:35.722Z,972.46
2018-04-26T12:24:36.400Z,972.45
2018-04-26T12:25:37.102Z,972.52
2018-04-26T12:26:37.777Z,972.62
2018-04-26T12:27:38.461Z,972.68
2018-04-26T12:28:39.143Z,972.68
2018-04-26T12:29:39.829Z,972.66
2018-04-26T12:30:40.503Z,972.61
2018-04-26T12:31:41.200Z,972.51
2018-04-26T12:32:41.883Z,972.57
2018-04-26T12:33:42.562Z,972.32
2018-04-26T12:34:43.243Z,972.36
2018-04-26T12:35:43.931Z,972.31
2018-04-26T12:36:44.610Z,972.38